Time;durP1;ratioP1;P1;durP2;ratioP2;P2;SDS_P1;SDS_P2;PMS_P1;PMS_P2;Temp;Humidity;BMP_temperature;BMP_pressure;BME280_temperature;BME280_humidity;BME280_pressure;Samples;Min_cycle;Max_cycle;Signal;HPM_P1;HPM_P2
2021/12/27 00:01:11;;;;;;;;;1.00;1.00;;;;;9.89;91.21;99288.91;5028241;28;45405;-77
2021/12/27 00:03:37;;;;;;;;;2.50;0.75;;;;;9.82;90.72;99277.69;5034449;28;45397;-77
2021/12/27 00:06:04;;;;;;;;;1.00;1.00;;;;;9.87;90.69;99277.53;5035112;28;45597;-77
2021/12/27 00:08:30;;;;;;;;;2.75;0.75;;;;;9.89;90.53;99273.91;5035298;28;45433;-78
2021/12/27 00:10:55;;;;;;;;;1.00;1.00;;;;;9.89;90.73;99267.78;5037250;28;45445;-77
2021/12/27 00:13:20;;;;;;;;;1.00;1.00;;;;;9.89;90.48;99265.16;5044418;28;45526;-80
2021/12/27 00:15:46;;;;;;;;;3.00;1.00;;;;;9.91;90.80;99260.66;5039051;28;45652;-80
2021/12/27 00:18:12;;;;;;;;;2.50;0.00;;;;;9.91;90.35;99256.22;5037319;28;45498;-79
2021/12/27 00:20:37;;;;;;;;;0.00;0.00;;;;;9.95;90.30;99265.75;5034644;28;45384;-77
2021/12/27 00:23:03;;;;;;;;;1.00;0.00;;;;;9.94;90.20;99261.44;5034021;28;45552;-77
2021/12/27 00:25:29;;;;;;;;;0.00;0.00;;;;;9.96;89.94;99258.72;5034415;28;45471;-78
2021/12/27 00:27:55;;;;;;;;;3.00;0.50;;;;;9.96;90.28;99256.09;5044852;28;45425;-77
2021/12/27 00:30:20;;;;;;;;;0.00;0.00;;;;;9.99;90.18;99269.16;5034047;28;45459;-77
2021/12/27 00:32:46;;;;;;;;;0.25;0.25;;;;;9.99;90.29;99252.44;5033188;28;45513;-77
2021/12/27 00:35:14;;;;;;;;;3.25;2.00;;;;;10.01;90.17;99253.28;5034312;28;45378;-77
2021/12/27 00:37:41;;;;;;;;;0.00;0.00;;;;;10.02;90.11;99253.22;5034567;28;45390;-76
2021/12/27 00:40:08;;;;;;;;;3.50;1.00;;;;;10.02;90.20;99242.66;5053228;28;45566;-77
2021/12/27 00:42:33;;;;;;;;;0.00;0.00;;;;;10.02;90.14;99244.41;5050136;28;45303;-79
2021/12/27 00:44:58;;;;;;;;;0.00;0.00;;;;;10.05;90.24;99252.22;5039511;28;46121;-79
2021/12/27 00:47:24;;;;;;;;;1.00;1.00;;;;;10.02;90.07;99250.56;5038627;28;45550;-78
2021/12/27 00:49:49;;;;;;;;;1.00;1.00;;;;;9.98;89.90;99245.47;5041308;28;45389;-79
2021/12/27 00:52:15;;;;;;;;;7.00;1.00;;;;;10.02;89.62;99244.41;5055070;28;45428;-79
2021/12/27 00:54:40;;;;;;;;;2.00;0.00;;;;;10.00;89.86;99244.47;5053475;28;46296;-80
2021/12/27 00:57:05;;;;;;;;;1.75;1.75;;;;;10.01;89.86;99245.34;5035936;28;45799;-79
2021/12/27 00:59:31;;;;;;;;;2.00;0.50;;;;;10.00;89.86;99247.13;5041647;28;45880;-79
2021/12/27 01:01:59;;;;;;;;;3.00;1.00;;;;;10.02;89.60;99252.31;5041675;28;45439;-80
2021/12/27 01:04:30;;;;;;;;;0.00;0.00;;;;;10.01;89.76;99243.56;5024831;28;45529;-79
2021/12/27 01:06:57;;;;;;;;;2.00;0.75;;;;;9.99;89.70;99240.13;5050776;28;45646;-80
2021/12/27 01:15:08;;;;;;;;;0.00;0.00;;;;;10.00;89.82;99233.91;5042254;28;46153;-77
2021/12/27 01:17:39;;;;;;;;;3.00;1.00;;;;;10.01;89.47;99230.38;5058866;28;45387;-80
2021/12/27 01:20:08;;;;;;;;;1.25;0.00;;;;;9.90;89.30;99207.03;5044426;28;45371;-79
2021/12/27 01:22:33;;;;;;;;;0.00;0.00;;;;;10.02;89.50;99232.09;5057793;28;45442;-80
2021/12/27 01:24:59;;;;;;;;;0.00;0.00;;;;;10.02;89.88;99216.25;5059178;28;46336;-81
2021/12/27 01:27:25;;;;;;;;;0.00;0.00;;;;;10.02;89.58;99223.28;5063089;28;45542;-78
2021/12/27 01:29:50;;;;;;;;;0.50;0.50;;;;;10.00;88.94;99211.94;5043190;28;45426;-79
2021/12/27 01:32:16;;;;;;;;;2.00;0.00;;;;;10.03;89.21;99217.94;5062924;28;45424;-80
2021/12/27 01:34:42;;;;;;;;;0.50;0.50;;;;;9.96;89.24;99195.38;5048230;28;45255;-80
2021/12/27 01:37:08;;;;;;;;;0.00;0.00;;;;;9.96;89.44;99190.09;5041639;28;45878;-79
2021/12/27 01:39:34;;;;;;;;;1.00;0.00;;;;;10.04;89.16;99209.13;5043424;28;45362;-79
2021/12/27 01:42:01;;;;;;;;;0.00;0.00;;;;;10.07;89.22;99206.38;5058849;28;45318;-80
2021/12/27 01:44:26;;;;;;;;;0.00;0.00;;;;;10.07;88.80;99209.00;5043188;28;45327;-79
2021/12/27 01:46:53;;;;;;;;;0.50;0.00;;;;;10.07;88.79;99200.22;5042830;28;45389;-80
2021/12/27 01:49:18;;;;;;;;;0.25;0.00;;;;;10.03;89.08;99186.28;5046066;28;45493;-78
2021/12/27 01:51:44;;;;;;;;;0.00;0.00;;;;;10.08;89.09;99192.25;5049163;28;45384;-78
2021/12/27 01:54:09;;;;;;;;;0.00;0.00;;;;;10.07;88.87;99193.16;5073178;28;47563;-79
2021/12/27 01:56:35;;;;;;;;;0.00;0.00;;;;;10.08;88.97;99189.63;5062859;28;45259;-79
2021/12/27 01:59:01;;;;;;;;;0.00;0.00;;;;;10.05;88.89;99194.13;5038852;28;45414;-80
2021/12/27 02:01:27;;;;;;;;;0.00;0.00;;;;;10.07;89.00;99203.72;5044862;28;45509;-79
2021/12/27 02:03:53;;;;;;;;;0.00;0.00;;;;;10.07;89.50;99200.22;5039453;28;45388;-79
2021/12/27 02:06:20;;;;;;;;;0.00;0.00;;;;;10.09;89.56;99207.16;5044461;28;45435;-78
2021/12/27 02:08:46;;;;;;;;;0.00;0.00;;;;;10.08;89.60;99200.16;5036658;28;45412;-80
2021/12/27 02:11:14;;;;;;;;;0.00;0.00;;;;;10.07;89.91;99193.16;5036493;28;45366;-77
2021/12/27 02:13:45;;;;;;;;;0.50;0.50;;;;;10.09;89.57;99196.59;5057033;28;46090;-80
2021/12/27 02:16:14;;;;;;;;;0.00;0.00;;;;;10.12;89.71;99198.25;5060192;28;45301;-79
2021/12/27 02:18:40;;;;;;;;;0.00;0.00;;;;;10.08;89.68;99189.63;5041862;28;45322;-79
2021/12/27 02:21:06;;;;;;;;;4.00;0.00;;;;;10.07;89.33;99181.75;5035912;28;45362;-80
2021/12/27 02:23:32;;;;;;;;;0.00;0.00;;;;;10.03;89.48;99188.91;5053346;28;45425;-79
2021/12/27 02:25:58;;;;;;;;;1.00;1.00;;;;;10.01;89.51;99182.84;5049611;28;45600;-79
2021/12/27 02:28:23;;;;;;;;;1.50;0.00;;;;;10.02;89.89;99181.94;5044890;28;45707;-78
2021/12/27 02:30:52;;;;;;;;;1.00;0.00;;;;;10.02;89.56;99173.13;5036945;28;45386;-79
2021/12/27 02:33:18;;;;;;;;;0.00;0.00;;;;;10.02;89.85;99168.75;5035849;28;46256;-79
2021/12/27 02:35:49;;;;;;;;;0.00;0.00;;;;;10.00;89.79;99167.91;5035469;28;45501;-79
2021/12/27 02:38:21;;;;;;;;;0.00;0.00;;;;;9.96;90.55;99171.63;5036924;28;45368;-79
2021/12/27 02:40:47;;;;;;;;;0.00;0.00;;;;;10.00;90.14;99175.84;5035975;28;45694;-79
2021/12/27 02:43:18;;;;;;;;;3.00;0.00;;;;;9.93;90.08;99159.41;5036415;28;45953;-79
2021/12/27 02:45:47;;;;;;;;;0.75;0.75;;;;;10.00;90.18;99170.56;5037651;28;45402;-77
2021/12/27 02:48:15;;;;;;;;;0.50;0.50;;;;;9.98;90.23;99167.13;5058068;28;45416;-77
2021/12/27 02:50:43;;;;;;;;;0.00;0.00;;;;;10.01;89.83;99160.88;5052238;28;45566;-76
2021/12/27 02:53:10;;;;;;;;;0.25;0.00;;;;;9.98;89.72;99161.00;5037258;28;45451;-76
2021/12/27 02:55:36;;;;;;;;;0.00;0.00;;;;;9.98;89.86;99153.94;5035459;28;45385;-76
2021/12/27 02:58:02;;;;;;;;;0.00;0.00;;;;;10.01;89.67;99152.97;5053328;28;45505;-77
2021/12/27 03:00:32;;;;;;;;;4.00;0.25;;;;;10.00;89.55;99144.16;5036329;28;45318;-76
2021/12/27 03:02:58;;;;;;;;;0.00;0.00;;;;;9.99;89.23;99142.47;5034284;28;46005;-76
2021/12/27 03:05:28;;;;;;;;;0.50;0.50;;;;;10.01;88.84;99139.75;5035818;28;45861;-77
2021/12/27 03:07:54;;;;;;;;;0.75;0.00;;;;;10.02;89.38;99139.69;5034774;28;45595;-77
2021/12/27 03:10:24;;;;;;;;;2.00;0.00;;;;;10.02;88.82;99152.03;5030357;28;45443;-76
2021/12/27 03:12:53;;;;;;;;;3.00;3.00;;;;;10.02;88.76;99142.34;5015675;28;46002;-77
2021/12/27 03:15:22;;;;;;;;;1.75;0.00;;;;;10.02;88.40;99142.34;5016389;28;45351;-76
2021/12/27 03:17:48;;;;;;;;;2.50;1.00;;;;;10.02;88.74;99133.53;5040060;28;45459;-76
2021/12/27 03:20:15;;;;;;;;;0.50;0.50;;;;;10.01;88.33;99140.63;5038479;28;45426;-77
2021/12/27 03:22:42;;;;;;;;;1.00;0.00;;;;;10.01;88.09;99143.25;5036287;28;48422;-76
2021/12/27 03:25:15;;;;;;;;;0.00;0.00;;;;;10.01;88.02;99135.34;5035325;28;45467;-77
2021/12/27 03:27:41;;;;;;;;;1.00;1.00;;;;;10.00;88.16;99130.13;5033117;28;45588;-77
2021/12/27 03:30:15;;;;;;;;;1.00;1.00;;;;;10.03;88.19;99133.47;5035329;28;45410;-76
2021/12/27 03:32:41;;;;;;;;;0.00;0.00;;;;;10.01;88.39;99135.34;5045353;28;48364;-76
2021/12/27 03:35:12;;;;;;;;;7.75;0.00;;;;;10.00;88.92;99128.31;5034578;28;45394;-76
2021/12/27 03:37:43;;;;;;;;;0.00;0.00;;;;;10.00;88.52;99122.19;5034585;28;45494;-77
2021/12/27 03:40:11;;;;;;;;;1.00;1.00;;;;;10.00;88.64;99128.31;5054098;28;45491;-76
2021/12/27 03:42:38;;;;;;;;;1.75;0.75;;;;;10.00;88.79;99111.63;5053000;28;45515;-77
2021/12/27 03:45:05;;;;;;;;;1.50;1.50;;;;;9.99;88.84;99113.44;5055046;28;46638;-76
2021/12/27 03:47:30;;;;;;;;;0.50;0.50;;;;;10.01;88.87;99102.81;5046770;28;45488;-77
2021/12/27 03:49:55;;;;;;;;;2.25;1.00;;;;;9.98;88.68;99103.78;5039365;28;45310;-76
2021/12/27 03:52:21;;;;;;;;;0.00;0.00;;;;;9.92;88.92;99093.47;5042705;28;45500;-76
2021/12/27 03:54:46;;;;;;;;;0.00;0.00;;;;;9.92;88.79;99091.69;5054582;28;45573;-76
2021/12/27 03:57:14;;;;;;;;;3.00;1.00;;;;;9.93;88.83;99089.94;5054003;28;45447;-77
2021/12/27 04:02:09;;;;;;;;;0.00;0.00;;;;;9.92;88.72;99096.97;5057005;28;46143;-78
2021/12/27 04:04:34;;;;;;;;;4.00;1.25;;;;;9.93;89.09;99096.06;5058199;28;45529;-79
2021/12/27 04:07:00;;;;;;;;;1.50;1.50;;;;;9.94;88.71;99078.44;5050496;28;45442;-79
2021/12/27 04:09:27;;;;;;;;;1.00;1.00;;;;;9.95;88.94;99088.06;5035200;28;45377;-78
2021/12/27 04:11:53;;;;;;;;;4.00;1.00;;;;;9.94;88.71;99083.72;5019971;28;45521;-79
2021/12/27 04:14:18;;;;;;;;;4.50;1.00;;;;;9.93;88.80;99092.56;5038912;28;45322;-78
2021/12/27 04:16:44;;;;;;;;;4.75;0.50;;;;;9.92;89.04;99080.28;5037279;28;45375;-79
2021/12/27 04:19:09;;;;;;;;;3.75;2.00;;;;;9.92;88.75;99082.91;5055796;28;45384;-77
2021/12/27 04:21:35;;;;;;;;;1.00;1.00;;;;;9.93;89.01;99079.38;5058332;28;46159;-80
2021/12/27 04:24:01;;;;;;;;;2.00;2.00;;;;;9.91;88.52;99075.91;5017456;28;45457;-78
2021/12/27 04:26:26;;;;;;;;;2.00;2.00;;;;;9.89;88.66;99078.63;5028690;28;45272;-79
2021/12/27 04:28:52;;;;;;;;;1.00;1.00;;;;;9.92;88.70;99072.38;5056267;28;45553;-79
2021/12/27 04:31:17;;;;;;;;;2.50;2.50;;;;;9.87;88.31;99069.91;5058917;28;45509;-79
2021/12/27 04:33:43;;;;;;;;;1.25;1.25;;;;;9.90;88.71;99075.06;5067410;28;45516;-79
2021/12/27 04:36:09;;;;;;;;;1.00;1.00;;;;;9.90;88.54;99079.47;5043913;28;45350;-78
2021/12/27 04:38:35;;;;;;;;;2.25;0.75;;;;;9.90;88.23;99076.81;5031597;28;45482;-79
2021/12/27 04:41:05;;;;;;;;;0.00;0.00;;;;;9.87;88.28;99079.59;5039561;28;45249;-78
2021/12/27 04:43:31;;;;;;;;;1.00;0.00;;;;;9.87;88.46;99079.59;5047996;28;45369;-78
2021/12/27 04:45:56;;;;;;;;;7.00;3.75;;;;;9.89;88.26;99085.69;5047783;28;45342;-78
2021/12/27 04:48:23;;;;;;;;;0.00;0.00;;;;;9.89;88.16;99090.97;5058529;28;45569;-80
2021/12/27 04:50:49;;;;;;;;;3.25;3.25;;;;;9.84;88.49;99085.00;5058948;28;46338;-79
2021/12/27 04:53:15;;;;;;;;;0.25;0.25;;;;;9.83;88.66;99085.94;5054299;28;45479;-80
2021/12/27 04:55:40;;;;;;;;;6.00;1.00;;;;;9.83;88.16;99099.13;5054831;28;45444;-77
2021/12/27 04:58:10;;;;;;;;;1.00;1.00;;;;;9.81;88.69;99098.31;5041122;28;45371;-77
2021/12/27 05:00:37;;;;;;;;;2.00;2.00;;;;;9.81;88.53;99106.22;5033756;28;45475;-77
2021/12/27 05:03:03;;;;;;;;;3.00;0.50;;;;;9.78;88.38;99108.09;5033058;28;45425;-77
2021/12/27 05:05:31;;;;;;;;;3.50;1.00;;;;;9.78;88.31;99102.81;5034173;28;45443;-77
2021/12/27 05:07:57;;;;;;;;;2.00;2.00;;;;;9.78;88.40;99112.50;5044196;28;45526;-77
2021/12/27 05:10:23;;;;;;;;;0.00;0.00;;;;;9.80;88.09;99115.09;5048303;28;46057;-76
2021/12/27 05:12:49;;;;;;;;;1.25;1.00;;;;;9.78;88.37;99107.25;5032663;28;45516;-76
2021/12/27 05:15:14;;;;;;;;;3.75;0.75;;;;;9.76;88.33;99106.41;5048990;28;45511;-76
2021/12/27 05:17:40;;;;;;;;;0.50;0.50;;;;;9.80;88.15;99110.66;5033731;28;45465;-77
2021/12/27 05:20:08;;;;;;;;;1.75;0.50;;;;;9.78;88.16;99110.72;5034329;28;45895;-77
2021/12/27 05:22:34;;;;;;;;;1.25;1.00;;;;;9.77;88.26;99106.34;5034952;28;45533;-77
2021/12/27 05:25:00;;;;;;;;;2.25;2.25;;;;;9.78;88.10;99108.09;5034110;28;45422;-76
2021/12/27 05:27:25;;;;;;;;;2.75;2.75;;;;;9.80;88.29;99113.31;5053901;28;45508;-76
2021/12/27 05:29:50;;;;;;;;;3.00;1.00;;;;;9.80;88.38;99104.53;5033730;28;45905;-77
2021/12/27 05:32:16;;;;;;;;;1.75;1.00;;;;;9.80;88.15;99101.91;5039311;28;51040;-77
2021/12/27 05:34:41;;;;;;;;;1.00;1.00;;;;;9.80;88.42;99099.25;5037501;28;45853;-75
2021/12/27 05:37:07;;;;;;;;;3.25;0.00;;;;;9.79;88.39;99095.75;5033208;28;45357;-76
2021/12/27 05:39:33;;;;;;;;;2.25;0.00;;;;;9.77;88.62;99079.13;5033050;28;45437;-77
2021/12/27 05:41:59;;;;;;;;;0.50;0.25;;;;;9.75;88.37;99075.69;5034339;28;45366;-79
2021/12/27 05:44:24;;;;;;;;;2.50;2.50;;;;;9.76;88.38;99073.00;5034150;28;45598;-78
2021/12/27 05:46:49;;;;;;;;;1.00;1.00;;;;;9.77;88.57;99069.41;5036619;28;45361;-77
2021/12/27 05:49:15;;;;;;;;;0.75;0.25;;;;;9.77;88.18;99065.94;5036010;28;45318;-76
2021/12/27 05:51:43;;;;;;;;;3.00;3.00;;;;;9.77;88.47;99052.72;5043987;28;45318;-77
2021/12/27 05:54:08;;;;;;;;;3.00;1.00;;;;;9.73;88.44;99041.47;5056601;28;45396;-76
2021/12/27 05:56:34;;;;;;;;;0.25;0.25;;;;;9.71;88.66;99032.72;5052488;28;45469;-77
2021/12/27 05:58:59;;;;;;;;;1.00;1.00;;;;;9.68;87.92;99029.38;5045945;28;45704;-78
2021/12/27 06:01:25;;;;;;;;;1.00;1.00;;;;;9.67;88.53;99020.59;5057784;28;45440;-78
2021/12/27 06:03:50;;;;;;;;;2.00;0.00;;;;;9.64;88.20;99004.03;5056200;28;45547;-78
2021/12/27 06:06:16;;;;;;;;;3.75;3.00;;;;;9.61;88.53;98994.47;5056631;28;45477;-77
2021/12/27 06:08:42;;;;;;;;;3.75;3.00;;;;;9.61;88.73;98989.19;5047096;28;46236;-77
2021/12/27 06:11:07;;;;;;;;;4.75;3.00;;;;;9.57;88.55;98987.59;5035824;28;45362;-76
2021/12/27 06:13:33;;;;;;;;;1.50;1.50;;;;;9.54;88.39;98978.03;5053678;28;45389;-77
2021/12/27 06:15:58;;;;;;;;;3.50;1.50;;;;;9.54;88.43;98966.63;5056569;28;45384;-77
2021/12/27 06:18:24;;;;;;;;;3.00;3.00;;;;;9.52;88.23;98958.78;5045785;28;47138;-76
2021/12/27 06:20:50;;;;;;;;;1.00;1.00;;;;;9.50;87.91;98943.94;5037204;28;45378;-77
2021/12/27 06:23:15;;;;;;;;;9.00;4.00;;;;;9.46;88.14;98943.22;5037439;28;45395;-76
2021/12/27 06:25:43;;;;;;;;;2.00;1.00;;;;;9.40;87.86;98923.22;5038765;28;45364;-76
2021/12/27 06:28:09;;;;;;;;;3.00;3.00;;;;;9.41;87.87;98927.56;5044588;28;46002;-77
2021/12/27 06:30:35;;;;;;;;;4.75;3.25;;;;;9.42;87.88;98926.63;5051743;28;45528;-77
2021/12/27 06:33:00;;;;;;;;;0.75;0.00;;;;;9.41;87.87;98914.41;5035682;28;45374;-77
2021/12/27 06:35:26;;;;;;;;;1.50;1.50;;;;;9.36;87.80;98905.78;5072061;28;45612;-77
2021/12/27 06:37:51;;;;;;;;;5.75;1.00;;;;;9.35;87.67;98888.28;5038913;28;45447;-77
2021/12/27 06:40:17;;;;;;;;;3.00;3.00;;;;;9.39;87.38;98889.00;5050276;28;45575;-78
2021/12/27 06:42:43;;;;;;;;;2.00;2.00;;;;;9.39;87.39;98889.00;5056400;28;45326;-77
2021/12/27 06:45:09;;;;;;;;;2.00;2.00;;;;;9.36;87.27;98879.44;5052970;28;45260;-77
2021/12/27 06:47:35;;;;;;;;;2.00;2.00;;;;;9.34;87.57;98869.88;5035868;28;46167;-77
2021/12/27 06:50:00;;;;;;;;;0.25;0.25;;;;;9.35;87.16;98882.13;5053198;28;45598;-77
2021/12/27 06:52:26;;;;;;;;;1.00;1.00;;;;;9.34;87.50;98888.34;5046769;28;45358;-76
2021/12/27 06:54:51;;;;;;;;;3.75;2.50;;;;;9.33;87.32;98890.09;5038167;28;45331;-81
2021/12/27 06:57:18;;;;;;;;;1.00;1.00;;;;;9.29;87.66;98880.59;5059632;28;45507;-79
2021/12/27 06:59:44;;;;;;;;;3.00;1.00;;;;;9.29;87.04;98890.28;5034334;28;45438;-79
2021/12/27 07:02:10;;;;;;;;;5.50;3.25;;;;;9.27;87.09;98890.34;5035745;28;45417;-78
2021/12/27 07:04:35;;;;;;;;;1.50;1.00;;;;;9.28;87.19;98902.63;5036662;28;45506;-79
2021/12/27 07:07:01;;;;;;;;;3.00;0.00;;;;;9.27;87.13;98902.69;5037270;28;45512;-79
2021/12/27 07:09:26;;;;;;;;;1.00;1.00;;;;;9.23;87.40;98896.66;5038746;28;45480;-78
2021/12/27 07:11:52;;;;;;;;;1.00;1.00;;;;;9.21;87.68;98885.34;5043488;28;45767;-79
2021/12/27 07:14:17;;;;;;;;;1.50;1.00;;;;;9.19;87.06;98897.75;5063027;28;45665;-79
2021/12/27 07:16:43;;;;;;;;;1.00;1.00;;;;;9.12;87.39;98878.66;5059081;28;45435;-79
2021/12/27 07:19:09;;;;;;;;;1.00;1.00;;;;;9.16;87.60;98895.22;5048018;28;45444;-78
2021/12/27 07:21:34;;;;;;;;;0.25;0.25;;;;;9.16;87.14;98898.72;5038995;28;45524;-79
2021/12/27 07:23:59;;;;;;;;;1.00;1.00;;;;;9.11;86.82;98884.00;5043051;28;45412;-79
2021/12/27 07:26:25;;;;;;;;;0.75;0.75;;;;;9.09;86.88;98877.94;5042208;28;45542;-80
2021/12/27 07:28:50;;;;;;;;;0.50;0.50;;;;;9.09;86.70;98884.06;5038290;28;45319;-80
2021/12/27 07:31:16;;;;;;;;;0.00;0.00;;;;;9.05;86.40;98895.66;5034880;28;45500;-79
2021/12/27 07:33:41;;;;;;;;;4.00;0.00;;;;;9.01;86.30;98889.63;5034093;28;45560;-79
2021/12/27 07:36:10;;;;;;;;;1.00;1.00;;;;;8.92;86.96;98879.47;5035900;28;45484;-78
2021/12/27 07:38:36;;;;;;;;;0.00;0.00;;;;;8.96;86.75;98896.88;5035377;28;45323;-79
2021/12/27 07:41:02;;;;;;;;;0.25;0.25;;;;;8.91;87.12;98895.34;5036028;28;45386;-80
2021/12/27 07:43:27;;;;;;;;;0.50;0.00;;;;;8.88;87.64;98899.81;5038202;28;45496;-81
2021/12/27 07:45:53;;;;;;;;;0.00;0.00;;;;;8.90;87.69;98902.41;5034674;28;45515;-80
2021/12/27 07:48:18;;;;;;;;;1.50;1.00;;;;;8.86;87.63;98895.53;5051467;28;45311;-83
2021/12/27 07:50:43;;;;;;;;;5.00;3.50;;;;;8.85;88.45;98883.25;5059932;28;45873;-80
2021/12/27 07:53:09;;;;;;;;;0.00;0.00;;;;;8.82;88.00;98880.75;5050945;28;45416;-79
2021/12/27 07:55:34;;;;;;;;;1.00;1.00;;;;;8.80;88.27;98893.97;5038499;28;45705;-78
2021/12/27 07:58:00;;;;;;;;;1.50;0.25;;;;;8.80;87.82;98891.34;5035862;28;45621;-78
2021/12/27 08:00:25;;;;;;;;;0.00;0.00;;;;;8.80;87.96;98893.13;5033660;28;45583;-78
2021/12/27 08:02:51;;;;;;;;;3.25;1.00;;;;;8.80;87.06;98885.22;5033641;28;45449;-78
2021/12/27 08:05:16;;;;;;;;;1.00;1.00;;;;;8.77;87.63;98882.72;5034505;28;45492;-77
2021/12/27 08:07:42;;;;;;;;;3.00;3.00;;;;;8.77;87.55;98883.56;5032144;28;45441;-78
2021/12/27 08:10:10;;;;;;;;;0.00;0.00;;;;;8.78;87.30;98887.09;5031547;28;45483;-77
2021/12/27 08:12:36;;;;;;;;;0.00;0.00;;;;;8.78;86.58;98881.81;5032846;28;45487;-77
2021/12/27 08:15:03;;;;;;;;;0.75;0.00;;;;;8.77;87.29;98872.19;5048076;28;46119;-79
2021/12/27 08:17:28;;;;;;;;;0.50;0.50;;;;;8.75;87.12;98871.41;5033021;28;45384;-78
2021/12/27 08:19:54;;;;;;;;;0.50;0.50;;;;;8.77;87.27;98869.56;5033762;28;45505;-77
2021/12/27 08:22:19;;;;;;;;;3.00;1.00;;;;;8.76;87.03;98867.81;5033430;28;45288;-77
2021/12/27 08:24:44;;;;;;;;;1.00;0.00;;;;;8.77;87.26;98865.13;5032911;28;46193;-77
2021/12/27 08:27:10;;;;;;;;;1.00;1.00;;;;;8.77;86.40;98864.28;5035221;28;45373;-77
2021/12/27 08:29:36;;;;;;;;;2.00;0.00;;;;;8.80;86.57;98857.09;5037444;28;45370;-78
2021/12/27 08:32:02;;;;;;;;;3.00;3.00;;;;;8.80;86.66;98853.63;5033255;28;45678;-78
2021/12/27 08:34:29;;;;;;;;;4.00;1.00;;;;;8.84;86.95;98857.84;5038595;28;45488;-79
2021/12/27 08:36:55;;;;;;;;;1.00;1.00;;;;;8.83;86.93;98861.41;5038242;28;45492;-77
2021/12/27 08:39:20;;;;;;;;;1.00;1.00;;;;;8.86;86.17;98858.63;5037319;28;45457;-77
2021/12/27 08:41:46;;;;;;;;;0.00;0.00;;;;;8.87;86.54;98863.00;5034511;28;45482;-76
2021/12/27 08:44:11;;;;;;;;;1.00;1.00;;;;;8.85;86.57;98857.78;5031860;28;45465;-78
2021/12/27 08:46:37;;;;;;;;;3.75;0.25;;;;;8.89;86.38;98855.88;5032123;28;45478;-78
2021/12/27 08:49:04;;;;;;;;;1.00;1.00;;;;;8.89;86.97;98854.09;5032541;28;45424;-78
2021/12/27 08:51:30;;;;;;;;;0.75;0.25;;;;;8.94;86.74;98859.19;5027754;28;45649;-79
2021/12/27 08:53:55;;;;;;;;;4.00;3.00;;;;;8.95;85.94;98846.88;5028360;28;45483;-79
2021/12/27 08:56:21;;;;;;;;;4.00;1.00;;;;;8.95;86.46;98841.63;5030133;28;45554;-79
2021/12/27 08:58:47;;;;;;;;;1.00;1.00;;;;;8.99;86.49;98843.22;5032379;28;46514;-79
2021/12/27 09:01:12;;;;;;;;;0.25;0.25;;;;;8.91;86.07;98818.94;5031938;28;45348;-78
2021/12/27 09:03:37;;;;;;;;;1.00;1.00;;;;;8.99;85.97;98836.16;5030503;28;46340;-79
2021/12/27 09:06:04;;;;;;;;;0.00;0.00;;;;;9.03;85.95;98840.38;5031256;28;45535;-79
2021/12/27 09:08:30;;;;;;;;;0.00;0.00;;;;;9.03;86.17;98842.13;5031461;28;45599;-80
2021/12/27 09:10:58;;;;;;;;;0.00;0.00;;;;;9.04;86.17;98842.06;5033557;28;45555;-79
2021/12/27 09:13:28;;;;;;;;;3.50;2.00;;;;;9.05;85.62;98840.31;5029619;28;45412;-79
2021/12/27 09:15:55;;;;;;;;;1.75;0.50;;;;;9.06;86.00;98840.25;5032277;28;45536;-79
2021/12/27 09:18:21;;;;;;;;;0.00;0.00;;;;;9.04;86.08;98833.31;5032342;28;45638;-79
2021/12/27 09:20:47;;;;;;;;;2.00;0.00;;;;;9.07;85.86;98834.03;5037172;28;45602;-80
2021/12/27 09:23:12;;;;;;;;;1.00;1.00;;;;;9.11;85.72;98831.28;5037777;28;45479;-80
2021/12/27 09:25:37;;;;;;;;;0.25;0.25;;;;;9.16;85.47;98838.09;5052291;28;45457;-79
2021/12/27 09:28:03;;;;;;;;;0.00;0.00;;;;;9.14;85.81;98831.16;5041292;28;45458;-79
2021/12/27 09:30:29;;;;;;;;;1.00;0.00;;;;;9.15;85.11;98836.34;5052268;28;45671;-79
2021/12/27 09:32:54;;;;;;;;;3.00;1.00;;;;;9.15;84.98;98835.50;5033737;28;45515;-79
2021/12/27 09:35:20;;;;;;;;;1.00;1.00;;;;;9.11;85.36;98826.00;5035730;28;45382;-79
2021/12/27 09:37:45;;;;;;;;;1.00;1.00;;;;;9.14;85.39;98825.88;5035010;28;45683;-79
2021/12/27 09:40:12;;;;;;;;;0.00;0.00;;;;;9.14;84.84;98825.88;5037354;28;45323;-79
2021/12/27 09:42:38;;;;;;;;;0.00;0.00;;;;;9.09;85.04;98828.72;5046932;28;45593;-79
2021/12/27 09:45:06;;;;;;;;;2.50;0.00;;;;;9.02;85.76;98816.72;5036155;28;45507;-80
2021/12/27 09:47:33;;;;;;;;;0.00;0.00;;;;;9.06;86.18;98824.44;5044304;28;44812;-81
2021/12/27 09:49:59;;;;;;;;;1.50;0.00;;;;;9.02;85.95;98825.47;5050299;28;44849;-79
2021/12/27 09:52:24;;;;;;;;;1.00;1.00;;;;;8.99;86.22;98812.44;5048401;28;45559;-80
2021/12/27 09:54:50;;;;;;;;;1.50;1.50;;;;;8.96;86.41;98809.94;5038811;28;45458;-80
2021/12/27 09:57:15;;;;;;;;;2.00;2.00;;;;;9.10;89.13;98819.88;5040299;28;45608;-79
2021/12/27 09:59:41;;;;;;;;;1.25;0.00;;;;;9.27;88.00;98813.91;5038517;28;45465;-80
2021/12/27 10:02:07;;;;;;;;;3.00;1.00;;;;;9.39;88.11;98817.81;5034938;28;45422;-78
2021/12/27 10:04:33;;;;;;;;;0.50;0.50;;;;;9.51;87.78;98819.06;5031806;28;45492;-80
2021/12/27 10:06:58;;;;;;;;;1.00;1.00;;;;;9.56;88.30;98817.91;5037844;28;45479;-80
2021/12/27 10:09:23;;;;;;;;;1.00;1.00;;;;;9.65;86.99;98821.94;5034290;28;45581;-80
2021/12/27 10:11:50;;;;;;;;;0.00;0.00;;;;;9.70;86.45;98814.69;5032760;28;46467;-79
2021/12/27 10:14:27;;;;;;;;;2.00;0.50;;;;;9.54;85.21;98818.94;5035544;28;45443;-77
2021/12/27 10:17:10;;;;;;;;;0.00;0.00;;;;;9.37;85.29;98822.28;5034397;28;45628;-77
2021/12/27 10:19:36;;;;;;;;;0.00;0.00;;;;;9.24;85.76;98812.25;5033960;28;45518;-77
2021/12/27 10:22:02;;;;;;;;;0.00;0.00;;;;;9.22;86.46;98822.00;5035100;28;45414;-77
2021/12/27 10:24:28;;;;;;;;;1.00;0.00;;;;;9.14;86.42;98816.22;5033956;28;45397;-77
2021/12/27 10:26:56;;;;;;;;;0.00;0.00;;;;;9.12;86.68;98818.03;5033203;28;45741;-79
2021/12/27 10:29:26;;;;;;;;;0.00;0.00;;;;;9.05;87.12;98806.91;5036601;28;45550;-77
2021/12/27 10:32:06;;;;;;;;;4.00;1.00;;;;;9.04;87.73;98807.81;5032793;28;45949;-76
2021/12/27 10:34:48;;;;;;;;;1.00;1.00;;;;;9.06;87.58;98818.28;5033731;28;45538;-75
2021/12/27 10:37:26;;;;;;;;;1.00;1.00;;;;;9.06;87.69;98805.13;5032393;28;45532;-74
2021/12/27 10:39:57;;;;;;;;;0.00;0.00;;;;;9.09;87.57;98796.22;5032344;28;45597;-74
2021/12/27 10:42:35;;;;;;;;;0.00;0.00;;;;;9.05;87.06;98791.09;5034382;28;46084;-77
2021/12/27 10:45:11;;;;;;;;;4.50;1.25;;;;;9.02;87.15;98791.22;5048319;28;45513;-76
2021/12/27 10:47:44;;;;;;;;;1.00;1.00;;;;;9.01;87.61;98788.66;5035854;28;45449;-77
2021/12/27 10:50:19;;;;;;;;;3.50;0.00;;;;;9.01;87.55;98794.78;5028262;28;45578;-75
2021/12/27 10:52:50;;;;;;;;;0.25;0.25;;;;;9.01;87.81;98797.41;5033991;28;45991;-76
2021/12/27 10:55:22;;;;;;;;;0.50;0.50;;;;;9.01;88.00;98799.19;5039206;28;45533;-76
2021/12/27 10:57:48;;;;;;;;;1.00;0.00;;;;;8.95;87.78;98787.13;5045676;28;45500;-76
2021/12/27 11:00:15;;;;;;;;;1.25;0.00;;;;;8.97;88.24;98797.59;5035576;28;44839;-76
2021/12/27 11:02:40;;;;;;;;;0.00;0.00;;;;;8.99;88.09;98793.13;5034407;28;45426;-76
2021/12/27 11:05:17;;;;;;;;;1.00;1.00;;;;;9.00;88.68;98798.34;5050502;28;45574;-76
2021/12/27 11:07:43;;;;;;;;;0.00;0.00;;;;;9.04;88.58;98810.44;5037246;28;45435;-76
2021/12/27 11:10:09;;;;;;;;;1.00;1.00;;;;;9.04;88.50;98799.91;5036588;28;45343;-75
2021/12/27 11:12:35;;;;;;;;;0.00;0.00;;;;;9.05;88.44;98806.91;5033525;28;46005;-77
2021/12/27 11:15:00;;;;;;;;;3.00;1.00;;;;;9.06;88.95;98813.91;5034287;28;45504;-73
2021/12/27 11:17:25;;;;;;;;;3.00;3.00;;;;;9.14;88.53;98825.88;5033630;28;45347;-75
2021/12/27 11:19:52;;;;;;;;;1.50;1.50;;;;;9.18;88.70;98816.94;5035861;28;45460;-75
2021/12/27 11:22:18;;;;;;;;;2.25;1.00;;;;;9.20;88.83;98804.53;5036260;28;46215;-74
2021/12/27 11:24:44;;;;;;;;;0.25;0.25;;;;;9.22;88.17;98807.97;5034478;28;45460;-76
2021/12/27 11:27:11;;;;;;;;;1.25;1.25;;;;;9.24;88.14;98811.41;5037084;28;45593;-76
2021/12/27 11:29:37;;;;;;;;;3.00;3.00;;;;;9.31;88.52;98818.13;5037062;28;45444;-76
2021/12/27 11:32:16;;;;;;;;;5.25;4.00;;;;;9.37;88.11;98814.38;5042483;28;46231;-77
2021/12/27 11:35:08;;;;;;;;;1.00;1.00;;;;;9.41;87.70;98813.31;5035385;28;45336;-76
2021/12/27 11:37:42;;;;;;;;;3.75;3.75;;;;;9.46;87.71;98816.63;5034934;28;45519;-75
2021/12/27 11:40:16;;;;;;;;;7.00;5.25;;;;;9.53;87.39;98814.56;5033533;28;45476;-76
2021/12/27 11:42:59;;;;;;;;;3.75;3.00;;;;;9.68;87.75;98805.13;5032736;28;45596;-77
2021/12/27 11:45:53;;;;;;;;;2.00;2.00;;;;;9.87;86.91;98790.19;5034094;28;45440;-76